sensor_id;sensor_type;location;lat;lon;timestamp;pressure;altitude;pressure_sealevel;temperature;humidity
43878;BME280;29815;48.184;11.268;2023-04-19T00:00:25;95998.06;;;7.44;100.00
43878;BME280;29815;48.184;11.268;2023-04-19T00:02:55;96001.78;;;7.43;100.00
43878;BME280;29815;48.184;11.268;2023-04-19T00:05:25;95995.03;;;7.40;100.00
43878;BME280;29815;48.184;11.268;2023-04-19T00:07:55;95994.22;;;7.40;100.00
43878;BME280;29815;48.184;11.268;2023-04-19T00:10:25;95991.00;;;7.38;100.00
43878;BME280;29815;48.184;11.268;2023-04-19T00:12:54;95988.34;;;7.38;100.00
43878;BME280;29815;48.184;11.268;2023-04-19T00:15:26;95988.00;;;7.34;100.00
43878;BME280;29815;48.184;11.268;2023-04-19T00:17:55;95990.91;;;7.33;100.00
43878;BME280;29815;48.184;11.268;2023-04-19T00:20:25;95993.59;;;7.33;100.00
43878;BME280;29815;48.184;11.268;2023-04-19T00:22:55;95989.03;;;7.33;100.00
43878;BME280;29815;48.184;11.268;2023-04-19T00:25:25;95976.94;;;7.31;100.00
43878;BME280;29815;48.184;11.268;2023-04-19T00:27:55;95986.03;;;7.30;100.00
43878;BME280;29815;48.184;11.268;2023-04-19T00:30:26;95987.06;;;7.29;100.00
43878;BME280;29815;48.184;11.268;2023-04-19T00:32:58;95985.22;;;7.29;100.00
43878;BME280;29815;48.184;11.268;2023-04-19T00:35:28;95982.78;;;7.28;100.00
43878;BME280;29815;48.184;11.268;2023-04-19T00:37:57;95981.97;;;7.27;100.00
43878;BME280;29815;48.184;11.268;2023-04-19T00:40:27;95972.28;;;7.26;100.00
43878;BME280;29815;48.184;11.268;2023-04-19T00:42:56;95973.34;;;7.25;100.00
43878;BME280;29815;48.184;11.268;2023-04-19T00:45:27;95969.84;;;7.25;100.00
43878;BME280;29815;48.184;11.268;2023-04-19T00:47:58;95966.38;;;7.24;100.00
43878;BME280;29815;48.184;11.268;2023-04-19T00:50:28;95964.75;;;7.23;100.00
43878;BME280;29815;48.184;11.268;2023-04-19T00:52:58;95971.16;;;7.22;100.00
43878;BME280;29815;48.184;11.268;2023-04-19T00:55:28;95966.03;;;7.21;100.00
43878;BME280;29815;48.184;11.268;2023-04-19T00:57:59;95964.41;;;7.20;100.00
43878;BME280;29815;48.184;11.268;2023-04-19T01:00:30;95968.13;;;7.19;100.00
43878;BME280;29815;48.184;11.268;2023-04-19T01:02:59;95965.69;;;7.17;100.00
43878;BME280;29815;48.184;11.268;2023-04-19T01:05:29;95970.47;;;7.15;100.00
43878;BME280;29815;48.184;11.268;2023-04-19T01:07:59;95962.91;;;7.12;100.00
43878;BME280;29815;48.184;11.268;2023-04-19T01:10:29;95959.69;;;7.10;100.00
43878;BME280;29815;48.184;11.268;2023-04-19T01:12:58;95958.63;;;7.11;100.00
43878;BME280;29815;48.184;11.268;2023-04-19T01:15:30;95966.66;;;7.11;100.00
43878;BME280;29815;48.184;11.268;2023-04-19T01:18:00;95952.47;;;7.10;100.00
43878;BME280;29815;48.184;11.268;2023-04-19T01:20:30;95949.78;;;7.10;100.00
43878;BME280;29815;48.184;11.268;2023-04-19T01:23:01;95948.72;;;7.11;100.00
43878;BME280;29815;48.184;11.268;2023-04-19T01:25:30;95953.00;;;7.12;100.00
43878;BME280;29815;48.184;11.268;2023-04-19T01:28:00;95946.59;;;7.13;100.00
43878;BME280;29815;48.184;11.268;2023-04-19T01:30:29;95940.69;;;7.11;100.00
43878;BME280;29815;48.184;11.268;2023-04-19T01:32:59;95940.69;;;7.11;100.00
43878;BME280;29815;48.184;11.268;2023-04-19T01:35:30;95938.00;;;7.11;100.00
43878;BME280;29815;48.184;11.268;2023-04-19T01:38:00;95933.47;;;7.12;100.00
43878;BME280;29815;48.184;11.268;2023-04-19T01:40:30;95938.81;;;7.12;100.00
43878;BME280;29815;48.184;11.268;2023-04-19T01:43:00;95934.28;;;7.12;100.00
43878;BME280;29815;48.184;11.268;2023-04-19T01:45:29;95929.19;;;7.11;100.00
43878;BME280;29815;48.184;11.268;2023-04-19T01:48:01;95925.69;;;7.10;100.00
43878;BME280;29815;48.184;11.268;2023-04-19T01:50:34;95927.56;;;7.10;100.00
43878;BME280;29815;48.184;11.268;2023-04-19T01:53:06;95929.44;;;7.09;100.00
43878;BME280;29815;48.184;11.268;2023-04-19T01:55:35;95921.41;;;7.09;100.00
43878;BME280;29815;48.184;11.268;2023-04-19T01:58:05;95918.72;;;7.09;100.00
43878;BME280;29815;48.184;11.268;2023-04-19T02:00:35;95920.59;;;7.09;100.00
43878;BME280;29815;48.184;11.268;2023-04-19T02:03:05;95920.59;;;7.09;100.00
43878;BME280;29815;48.184;11.268;2023-04-19T02:05:35;95918.72;;;7.09;100.00
43878;BME280;29815;48.184;11.268;2023-04-19T02:08:08;95911.75;;;7.08;100.00
43878;BME280;29815;48.184;11.268;2023-04-19T02:10:38;95911.75;;;7.08;100.00
43878;BME280;29815;48.184;11.268;2023-04-19T02:13:07;95909.88;;;7.09;100.00
43878;BME280;29815;48.184;11.268;2023-04-19T02:15:37;95916.03;;;7.09;100.00
43878;BME280;29815;48.184;11.268;2023-04-19T02:18:06;95915.22;;;7.09;100.00
43878;BME280;29815;48.184;11.268;2023-04-19T02:20:36;95908.25;;;7.08;100.00
43878;BME280;29815;48.184;11.268;2023-04-19T02:23:05;95915.47;;;7.07;100.00
43878;BME280;29815;48.184;11.268;2023-04-19T02:25:36;95912.78;;;7.07;100.00
43878;BME280;29815;48.184;11.268;2023-04-19T02:28:07;95899.66;;;7.06;100.00
43878;BME280;29815;48.184;11.268;2023-04-19T02:30:36;95902.31;;;7.06;100.00
43878;BME280;29815;48.184;11.268;2023-04-19T02:33:06;95894.53;;;7.04;100.00
43878;BME280;29815;48.184;11.268;2023-04-19T02:35:36;95893.97;;;7.02;100.00
43878;BME280;29815;48.184;11.268;2023-04-19T02:38:05;95892.91;;;7.03;100.00
43878;BME280;29815;48.184;11.268;2023-04-19T02:40:36;95891.03;;;7.04;100.00
43878;BME280;29815;48.184;11.268;2023-04-19T02:43:06;95892.66;;;7.05;100.00
43878;BME280;29815;48.184;11.268;2023-04-19T02:45:35;95878.47;;;7.04;100.00
43878;BME280;29815;48.184;11.268;2023-04-19T02:48:05;95882.78;;;7.05;100.00
43878;BME280;29815;48.184;11.268;2023-04-19T02:50:36;95882.19;;;7.03;100.00
43878;BME280;29815;48.184;11.268;2023-04-19T02:53:06;95882.19;;;7.03;100.00
43878;BME280;29815;48.184;11.268;2023-04-19T02:55:37;95880.81;;;7.01;100.00
43878;BME280;29815;48.184;11.268;2023-04-19T02:58:13;95883.72;;;6.99;100.00
43878;BME280;29815;48.184;11.268;2023-04-19T03:00:54;95879.19;;;7.00;100.00
43878;BME280;29815;48.184;11.268;2023-04-19T03:03:23;95880.00;;;7.00;100.00
43878;BME280;29815;48.184;11.268;2023-04-19T03:05:53;95877.56;;;6.99;100.00
43878;BME280;29815;48.184;11.268;2023-04-19T03:08:23;95880.47;;;6.97;100.00
43878;BME280;29815;48.184;11.268;2023-04-19T03:10:54;95870.59;;;6.98;100.00
43878;BME280;29815;48.184;11.268;2023-04-19T03:13:24;95878.03;;;6.96;100.00
43878;BME280;29815;48.184;11.268;2023-04-19T03:15:53;95868.97;;;6.97;100.00
43878;BME280;29815;48.184;11.268;2023-04-19T03:18:23;95868.97;;;6.97;100.00
43878;BME280;29815;48.184;11.268;2023-04-19T03:20:55;95870.00;;;6.96;100.00
43878;BME280;29815;48.184;11.268;2023-04-19T03:23:28;95867.56;;;6.94;100.00
43878;BME280;29815;48.184;11.268;2023-04-19T03:26:02;95863.28;;;6.93;100.00
43878;BME280;29815;48.184;11.268;2023-04-19T03:28:38;95861.66;;;6.92;100.00
43878;BME280;29815;48.184;11.268;2023-04-19T03:31:23;95863.50;;;6.92;100.00
43878;BME280;29815;48.184;11.268;2023-04-19T03:33:54;95854.91;;;6.90;100.00
43878;BME280;29815;48.184;11.268;2023-04-19T03:36:28;95853.28;;;6.89;100.00
43878;BME280;29815;48.184;11.268;2023-04-19T03:38:58;95848.75;;;6.89;100.00
43878;BME280;29815;48.184;11.268;2023-04-19T03:41:29;95855.94;;;6.89;100.00
43878;BME280;29815;48.184;11.268;2023-04-19T03:44:24;95852.47;;;6.88;100.00
43878;BME280;29815;48.184;11.268;2023-04-19T03:46:54;95851.41;;;6.89;100.00
43878;BME280;29815;48.184;11.268;2023-04-19T03:49:28;95842.56;;;6.89;100.00
43878;BME280;29815;48.184;11.268;2023-04-19T03:52:04;95847.13;;;6.88;100.00
43878;BME280;29815;48.184;11.268;2023-04-19T03:54:34;95843.88;;;6.86;100.00
43878;BME280;29815;48.184;11.268;2023-04-19T03:57:09;95842.00;;;6.87;100.00
43878;BME280;29815;48.184;11.268;2023-04-19T03:59:41;95847.59;;;6.85;100.00
43878;BME280;29815;48.184;11.268;2023-04-19T04:02:10;95853.75;;;6.86;100.00
43878;BME280;29815;48.184;11.268;2023-04-19T04:04:40;95843.28;;;6.84;100.00
43878;BME280;29815;48.184;11.268;2023-04-19T04:07:10;95848.91;;;6.83;100.00
43878;BME280;29815;48.184;11.268;2023-04-19T04:09:39;95851.81;;;6.81;100.00
43878;BME280;29815;48.184;11.268;2023-04-19T04:12:10;95844.38;;;6.83;100.00
43878;BME280;29815;48.184;11.268;2023-04-19T04:14:40;95846.47;;;6.81;100.00
43878;BME280;29815;48.184;11.268;2023-04-19T04:17:12;95853.44;;;6.82;100.00
43878;BME280;29815;48.184;11.268;2023-04-19T04:19:41;95848.91;;;6.83;100.00
43878;BME280;29815;48.184;11.268;2023-04-19T04:22:11;95856.13;;;6.82;100.00
43878;BME280;29815;48.184;11.268;2023-04-19T04:24:42;95847.03;;;6.83;100.00
43878;BME280;29815;48.184;11.268;2023-04-19T04:27:26;95849.97;;;6.82;100.00
43878;BME280;29815;48.184;11.268;2023-04-19T04:29:55;95848.91;;;6.83;100.00
43878;BME280;29815;48.184;11.268;2023-04-19T04:32:25;95850.19;;;6.80;100.00
43878;BME280;29815;48.184;11.268;2023-04-19T04:34:59;95854.72;;;6.79;100.00
43878;BME280;29815;48.184;11.268;2023-04-19T04:37:39;95849.63;;;6.78;100.00
43878;BME280;29815;48.184;11.268;2023-04-19T04:40:10;95852.53;;;6.76;100.00
43878;BME280;29815;48.184;11.268;2023-04-19T04:42:41;95858.47;;;6.78;100.00
43878;BME280;29815;48.184;11.268;2023-04-19T04:45:13;95853.09;;;6.78;100.00
43878;BME280;29815;48.184;11.268;2023-04-19T04:47:45;95845.09;;;6.78;100.00
43878;BME280;29815;48.184;11.268;2023-04-19T04:50:16;95845.31;;;6.77;100.00
43878;BME280;29815;48.184;11.268;2023-04-19T04:52:49;95846.94;;;6.78;100.00
43878;BME280;29815;48.184;11.268;2023-04-19T04:55:24;95849.38;;;6.79;100.00
43878;BME280;29815;48.184;11.268;2023-04-19T04:57:55;95856.34;;;6.81;100.00
43878;BME280;29815;48.184;11.268;2023-04-19T05:00:33;95852.06;;;6.79;100.00
43878;BME280;29815;48.184;11.268;2023-04-19T05:03:06;95851.00;;;6.81;100.00
43878;BME280;29815;48.184;11.268;2023-04-19T05:05:41;95849.97;;;6.82;100.00
43878;BME280;29815;48.184;11.268;2023-04-19T05:08:12;95852.06;;;6.79;100.00
43878;BME280;29815;48.184;11.268;2023-04-19T05:10:42;95842.97;;;6.81;100.00
43878;BME280;29815;48.184;11.268;2023-04-19T05:13:14;95847.28;;;6.82;100.00
43878;BME280;29815;48.184;11.268;2023-04-19T05:15:43;95852.41;;;6.83;100.00
43878;BME280;29815;48.184;11.268;2023-04-19T05:18:14;95845.19;;;6.84;100.00
43878;BME280;29815;48.184;11.268;2023-04-19T05:20:43;95843.28;;;6.84;100.00
43878;BME280;29815;48.184;11.268;2023-04-19T05:23:21;95839.56;;;6.85;100.00
43878;BME280;29815;48.184;11.268;2023-04-19T05:25:51;95844.44;;;6.88;100.00
43878;BME280;29815;48.184;11.268;2023-04-19T05:28:25;95839.91;;;6.89;100.00
43878;BME280;29815;48.184;11.268;2023-04-19T05:31:07;95837.00;;;6.90;100.00
43878;BME280;29815;48.184;11.268;2023-04-19T05:33:46;95842.09;;;6.92;100.00
43878;BME280;29815;48.184;11.268;2023-04-19T05:36:15;95841.06;;;6.93;100.00
43878;BME280;29815;48.184;11.268;2023-04-19T05:38:45;95833.84;;;6.93;100.00
43878;BME280;29815;48.184;11.268;2023-04-19T05:41:15;95837.56;;;6.92;100.00
43878;BME280;29815;48.184;11.268;2023-04-19T05:43:47;95837.00;;;6.90;100.00
43878;BME280;29815;48.184;11.268;2023-04-19T05:46:17;95839.66;;;6.90;100.00
43878;BME280;29815;48.184;11.268;2023-04-19T05:48:46;95835.13;;;6.91;100.00
43878;BME280;29815;48.184;11.268;2023-04-19T05:51:34;95839.44;;;6.92;100.00
43878;BME280;29815;48.184;11.268;2023-04-19T05:54:08;95837.31;;;6.94;100.00
43878;BME280;29815;48.184;11.268;2023-04-19T05:56:41;95840.00;;;6.94;100.00
43878;BME280;29815;48.184;11.268;2023-04-19T05:59:11;95834.06;;;6.92;100.00
43878;BME280;29815;48.184;11.268;2023-04-19T06:01:41;95835.13;;;6.91;100.00
43878;BME280;29815;48.184;11.268;2023-04-19T06:04:12;95832.78;;;6.94;100.00
43878;BME280;29815;48.184;11.268;2023-04-19T06:06:42;95843.00;;;6.97;100.00
43878;BME280;29815;48.184;11.268;2023-04-19T06:09:15;95837.44;;;6.99;100.00
43878;BME280;29815;48.184;11.268;2023-04-19T06:11:45;95835.56;;;6.99;100.00
43878;BME280;29815;48.184;11.268;2023-04-19T06:14:19;95836.38;;;7.00;100.00
43878;BME280;29815;48.184;11.268;2023-04-19T06:16:49;95842.44;;;6.95;100.00
43878;BME280;29815;48.184;11.268;2023-04-19T06:19:19;95845.13;;;6.95;100.00
43878;BME280;29815;48.184;11.268;2023-04-19T06:21:49;95843.25;;;6.96;100.00
43878;BME280;29815;48.184;11.268;2023-04-19T06:24:18;95844.88;;;6.97;100.00
43878;BME280;29815;48.184;11.268;2023-04-19T06:26:48;95843.81;;;6.98;100.00
43878;BME280;29815;48.184;11.268;2023-04-19T06:29:17;95846.03;;;7.01;100.00
43878;BME280;29815;48.184;11.268;2023-04-19T06:31:50;95848.47;;;7.02;100.00
43878;BME280;29815;48.184;11.268;2023-04-19T06:34:19;95843.94;;;7.03;100.00
43878;BME280;29815;48.184;11.268;2023-04-19T06:36:49;95840.19;;;7.04;100.00
43878;BME280;29815;48.184;11.268;2023-04-19T06:39:19;95845.78;;;7.02;100.00
43878;BME280;29815;48.184;11.268;2023-04-19T06:41:48;95838.56;;;7.03;100.00
43878;BME280;29815;48.184;11.268;2023-04-19T06:44:18;95841.25;;;7.03;100.00
43878;BME280;29815;48.184;11.268;2023-04-19T06:46:49;95832.97;;;7.04;100.00
43878;BME280;29815;48.184;11.268;2023-04-19T06:49:18;95834.84;;;7.04;100.00
43878;BME280;29815;48.184;11.268;2023-04-19T06:51:49;95831.34;;;7.03;100.00
43878;BME280;29815;48.184;11.268;2023-04-19T06:54:20;95834.38;;;7.07;100.00
43878;BME280;29815;48.184;11.268;2023-04-19T06:56:50;95827.72;;;7.09;100.00
43878;BME280;29815;48.184;11.268;2023-04-19T06:59:20;95829.88;;;7.12;100.00
43878;BME280;29815;48.184;11.268;2023-04-19T07:01:51;95828.84;;;7.13;100.00
43878;BME280;29815;48.184;11.268;2023-04-19T07:04:21;95833.13;;;7.14;100.00
43878;BME280;29815;48.184;11.268;2023-04-19T07:06:50;95835.81;;;7.14;100.00
43878;BME280;29815;48.184;11.268;2023-04-19T07:09:20;95838.00;;;7.18;100.00
43878;BME280;29815;48.184;11.268;2023-04-19T07:11:49;95830.22;;;7.16;100.00
43878;BME280;29815;48.184;11.268;2023-04-19T07:14:19;95828.13;;;7.18;100.00
43878;BME280;29815;48.184;11.268;2023-04-19T07:16:50;95821.47;;;7.21;100.00
43878;BME280;29815;48.184;11.268;2023-04-19T07:19:21;95827.16;;;7.24;100.00
43878;BME280;29815;48.184;11.268;2023-04-19T07:21:50;95824.25;;;7.26;100.00
43878;BME280;29815;48.184;11.268;2023-04-19T07:24:21;95826.44;;;7.29;100.00
43878;BME280;29815;48.184;11.268;2023-04-19T07:26:52;95826.53;;;7.34;100.00
43878;BME280;29815;48.184;11.268;2023-04-19T07:29:22;95827.91;;;7.36;100.00
43878;BME280;29815;48.184;11.268;2023-04-19T07:31:52;95819.94;;;7.41;100.00
43878;BME280;29815;48.184;11.268;2023-04-19T07:34:22;95825.63;;;7.45;100.00
43878;BME280;29815;48.184;11.268;2023-04-19T07:36:52;95824.31;;;7.47;100.00
43878;BME280;29815;48.184;11.268;2023-04-19T07:39:21;95822.22;;;7.50;100.00
43878;BME280;29815;48.184;11.268;2023-04-19T07:41:51;95812.66;;;7.54;100.00
43878;BME280;29815;48.184;11.268;2023-04-19T07:44:20;95809.25;;;7.58;100.00
43878;BME280;29815;48.184;11.268;2023-04-19T07:46:51;95812.56;;;7.65;100.00
43878;BME280;29815;48.184;11.268;2023-04-19T07:49:21;95807.03;;;7.72;100.00
43878;BME280;29815;48.184;11.268;2023-04-19T07:51:51;95807.44;;;7.80;100.00
43878;BME280;29815;48.184;11.268;2023-04-19T07:54:20;95794.69;;;7.88;100.00
43878;BME280;29815;48.184;11.268;2023-04-19T07:56:50;95794.78;;;7.98;100.00
43878;BME280;29815;48.184;11.268;2023-04-19T07:59:19;95801.38;;;8.07;100.00
43878;BME280;29815;48.184;11.268;2023-04-19T08:01:49;95800.13;;;8.14;100.00
43878;BME280;29815;48.184;11.268;2023-04-19T08:04:20;95803.19;;;8.23;100.00
43878;BME280;29815;48.184;11.268;2023-04-19T08:06:50;95806.03;;;8.33;100.00
43878;BME280;29815;48.184;11.268;2023-04-19T08:09:20;95800.16;;;8.36;100.00
43878;BME280;29815;48.184;11.268;2023-04-19T08:11:49;95806.72;;;8.45;100.00
43878;BME280;29815;48.184;11.268;2023-04-19T08:14:20;95800.91;;;8.54;100.00
43878;BME280;29815;48.184;11.268;2023-04-19T08:17:05;95791.03;;;8.59;100.00
43878;BME280;29815;48.184;11.268;2023-04-19T08:19:54;95798.72;;;8.72;100.00
43878;BME280;29815;48.184;11.268;2023-04-19T08:22:24;95795.81;;;8.79;100.00
43878;BME280;29815;48.184;11.268;2023-04-19T08:24:54;95788.63;;;8.85;100.00
43878;BME280;29815;48.184;11.268;2023-04-19T08:27:23;95793.00;;;8.91;100.00
43878;BME280;29815;48.184;11.268;2023-04-19T08:29:54;95791.47;;;9.00;100.00
43878;BME280;29815;48.184;11.268;2023-04-19T08:32:23;95787.75;;;9.06;100.00
43878;BME280;29815;48.184;11.268;2023-04-19T08:34:54;95792.31;;;9.05;100.00
43878;BME280;29815;48.184;11.268;2023-04-19T08:37:24;95789.94;;;9.09;100.00
43878;BME280;29815;48.184;11.268;2023-04-19T08:39:54;95791.38;;;9.16;100.00
43878;BME280;29815;48.184;11.268;2023-04-19T08:42:23;95784.16;;;9.22;100.00
43878;BME280;29815;48.184;11.268;2023-04-19T08:45:05;95781.56;;;9.32;100.00
43878;BME280;29815;48.184;11.268;2023-04-19T08:47:56;95781.09;;;9.40;100.00
43878;BME280;29815;48.184;11.268;2023-04-19T08:50:30;95774.41;;;9.43;100.00
43878;BME280;29815;48.184;11.268;2023-04-19T08:53:16;95775.25;;;9.48;100.00
43878;BME280;29815;48.184;11.268;2023-04-19T08:55:53;95775.03;;;9.55;100.00
43878;BME280;29815;48.184;11.268;2023-04-19T08:58:28;95767.03;;;9.65;100.00
43878;BME280;29815;48.184;11.268;2023-04-19T09:01:20;95764.69;;;9.74;100.00
43878;BME280;29815;48.184;11.268;2023-04-19T09:04:03;95765.53;;;9.79;100.00
43878;BME280;29815;48.184;11.268;2023-04-19T09:06:56;95757.19;;;9.81;100.00
43878;BME280;29815;48.184;11.268;2023-04-19T09:09:27;95754.53;;;9.86;100.00
43878;BME280;29815;48.184;11.268;2023-04-19T09:12:00;95754.84;;;9.95;100.00
43878;BME280;29815;48.184;11.268;2023-04-19T09:14:30;95755.91;;;9.94;100.00
43878;BME280;29815;48.184;11.268;2023-04-19T09:17:12;95748.09;;;9.92;100.00
43878;BME280;29815;48.184;11.268;2023-04-19T09:19:46;95759.09;;;9.80;100.00
43878;BME280;29815;48.184;11.268;2023-04-19T09:22:18;95749.34;;;9.74;100.00
43878;BME280;29815;48.184;11.268;2023-04-19T09:24:47;95744.75;;;9.70;100.00
43878;BME280;29815;48.184;11.268;2023-04-19T09:27:26;95738.34;;;9.76;100.00
43878;BME280;29815;48.184;11.268;2023-04-19T09:29:58;95737.31;;;9.82;100.00
43878;BME280;29815;48.184;11.268;2023-04-19T09:32:45;95740.00;;;9.87;100.00
43878;BME280;29815;48.184;11.268;2023-04-19T09:35:16;95733.31;;;9.90;100.00
43878;BME280;29815;48.184;11.268;2023-04-19T09:37:59;95731.47;;;9.95;100.00
43878;BME280;29815;48.184;11.268;2023-04-19T09:40:34;95727.50;;;10.08;100.00
43878;BME280;29815;48.184;11.268;2023-04-19T09:43:04;95720.06;;;10.25;100.00
43878;BME280;29815;48.184;11.268;2023-04-19T09:45:54;95726.53;;;10.29;100.00
43878;BME280;29815;48.184;11.268;2023-04-19T09:48:23;95718.78;;;10.38;100.00
43878;BME280;29815;48.184;11.268;2023-04-19T09:50:54;95718.50;;;10.39;100.00
43878;BME280;29815;48.184;11.268;2023-04-19T09:53:35;95715.81;;;10.34;100.00
43878;BME280;29815;48.184;11.268;2023-04-19T09:56:07;95711.47;;;10.28;100.00
43878;BME280;29815;48.184;11.268;2023-04-19T09:58:40;95710.28;;;10.14;100.00
43878;BME280;29815;48.184;11.268;2023-04-19T10:01:20;95704.66;;;10.15;100.00
43878;BME280;29815;48.184;11.268;2023-04-19T10:03:51;95705.78;;;10.20;100.00
43878;BME280;29815;48.184;11.268;2023-04-19T10:06:22;95701.28;;;10.35;100.00
43878;BME280;29815;48.184;11.268;2023-04-19T10:09:00;95698.59;;;10.45;100.00
43878;BME280;29815;48.184;11.268;2023-04-19T10:11:33;95698.38;;;10.62;100.00
43878;BME280;29815;48.184;11.268;2023-04-19T10:14:08;95691.38;;;10.71;100.00
43878;BME280;29815;48.184;11.268;2023-04-19T10:16:38;95691.91;;;10.68;100.00
43878;BME280;29815;48.184;11.268;2023-04-19T10:19:11;95694.34;;;10.75;100.00
43878;BME280;29815;48.184;11.268;2023-04-19T10:21:43;95689.25;;;10.78;100.00
43878;BME280;29815;48.184;11.268;2023-04-19T10:24:16;95690.31;;;10.77;100.00
43878;BME280;29815;48.184;11.268;2023-04-19T10:27:08;95688.97;;;10.80;100.00
43878;BME280;29815;48.184;11.268;2023-04-19T17:24:47;95613.59;;;5.40;100.00
43878;BME280;29815;48.184;11.268;2023-04-19T17:27:17;95612.09;;;5.33;100.00
43878;BME280;29815;48.184;11.268;2023-04-19T17:29:46;95615.00;;;5.31;100.00
43878;BME280;29815;48.184;11.268;2023-04-19T17:32:16;95611.41;;;5.26;100.00
43878;BME280;29815;48.184;11.268;2023-04-19T17:34:45;95605.72;;;5.22;100.00
43878;BME280;29815;48.184;11.268;2023-04-19T17:37:15;95599.03;;;5.20;100.00
43878;BME280;29815;48.184;11.268;2023-04-19T17:39:46;95599.72;;;5.15;100.00
43878;BME280;29815;48.184;11.268;2023-04-19T17:42:16;95601.69;;;5.08;100.00
43878;BME280;29815;48.184;11.268;2023-04-19T17:44:45;95591.50;;;5.05;100.00
43878;BME280;29815;48.184;11.268;2023-04-19T17:47:15;95590.78;;;4.98;100.00
43878;BME280;29815;48.184;11.268;2023-04-19T17:49:46;95593.13;;;4.94;100.00
43878;BME280;29815;48.184;11.268;2023-04-19T17:52:16;95590.13;;;4.91;100.00
43878;BME280;29815;48.184;11.268;2023-04-19T17:54:49;95591.19;;;4.90;100.00
43878;BME280;29815;48.184;11.268;2023-04-19T17:57:23;95590.59;;;4.88;100.00
43878;BME280;29815;48.184;11.268;2023-04-19T17:59:54;95598.00;;;4.86;100.00
43878;BME280;29815;48.184;11.268;2023-04-19T18:02:24;95591.53;;;4.82;100.00
43878;BME280;29815;48.184;11.268;2023-04-19T18:04:56;95592.56;;;4.81;100.00
43878;BME280;29815;48.184;11.268;2023-04-19T18:07:29;95590.13;;;4.79;100.00
43878;BME280;29815;48.184;11.268;2023-04-19T18:10:00;95580.97;;;4.75;100.00
43878;BME280;29815;48.184;11.268;2023-04-19T18:12:30;95585.72;;;4.73;100.00
43878;BME280;29815;48.184;11.268;2023-04-19T18:14:59;95586.63;;;4.67;100.00
43878;BME280;29815;48.184;11.268;2023-04-19T18:17:29;95593.00;;;4.66;100.00
43878;BME280;29815;48.184;11.268;2023-04-19T18:19:59;95598.13;;;4.67;100.00
43878;BME280;29815;48.184;11.268;2023-04-19T18:22:30;95595.94;;;4.64;100.00
43878;BME280;29815;48.184;11.268;2023-04-19T18:25:01;95608.44;;;4.64;100.00
43878;BME280;29815;48.184;11.268;2023-04-19T18:27:31;95606.03;;;4.62;100.00
43878;BME280;29815;48.184;11.268;2023-04-19T18:30:01;95610.53;;;4.62;100.00
43878;BME280;29815;48.184;11.268;2023-04-19T18:32:34;95614.25;;;4.61;100.00
43878;BME280;29815;48.184;11.268;2023-04-19T18:35:06;95619.22;;;4.57;100.00
43878;BME280;29815;48.184;11.268;2023-04-19T18:37:37;95625.22;;;4.53;100.00
43878;BME280;29815;48.184;11.268;2023-04-19T18:40:09;95630.66;;;4.46;100.00
43878;BME280;29815;48.184;11.268;2023-04-19T18:42:59;95624.16;;;4.42;100.00
43878;BME280;29815;48.184;11.268;2023-04-19T18:45:31;95629.72;;;4.40;100.00
43878;BME280;29815;48.184;11.268;2023-04-19T18:48:01;95633.09;;;4.36;100.00
43878;BME280;29815;48.184;11.268;2023-04-19T18:50:31;95622.31;;;4.31;100.00
43878;BME280;29815;48.184;11.268;2023-04-19T18:53:01;95629.72;;;4.29;100.00
43878;BME280;29815;48.184;11.268;2023-04-19T18:55:33;95636.91;;;4.28;100.00
43878;BME280;29815;48.184;11.268;2023-04-19T18:58:03;95634.91;;;4.24;100.00
43878;BME280;29815;48.184;11.268;2023-04-19T19:00:33;95627.97;;;4.23;100.00
43878;BME280;29815;48.184;11.268;2023-04-19T19:03:03;95626.91;;;4.24;100.00
43878;BME280;29815;48.184;11.268;2023-04-19T19:05:51;95624.47;;;4.22;100.00
43878;BME280;29815;48.184;11.268;2023-04-19T19:08:21;95624.25;;;4.24;100.00
43878;BME280;29815;48.184;11.268;2023-04-19T19:10:52;95632.84;;;4.26;100.00
43878;BME280;29815;48.184;11.268;2023-04-19T19:13:25;95634.81;;;4.30;100.00
43878;BME280;29815;48.184;11.268;2023-04-19T19:15:54;95633.78;;;4.31;100.00
43878;BME280;29815;48.184;11.268;2023-04-19T19:18:24;95641.53;;;4.33;100.00
43878;BME280;29815;48.184;11.268;2023-04-19T19:20:57;95640.97;;;4.31;100.00
43878;BME280;29815;48.184;11.268;2023-04-19T19:23:27;95656.81;;;4.26;100.00
43878;BME280;29815;48.184;11.268;2023-04-19T19:26:04;95662.94;;;4.26;100.00
43878;BME280;29815;48.184;11.268;2023-04-19T19:28:34;95661.91;;;4.27;100.00
43878;BME280;29815;48.184;11.268;2023-04-19T19:31:03;95668.50;;;4.25;100.00
43878;BME280;29815;48.184;11.268;2023-04-19T19:33:33;95670.59;;;4.23;100.00
43878;BME280;29815;48.184;11.268;2023-04-19T19:36:08;95669.75;;;4.22;100.00
43878;BME280;29815;48.184;11.268;2023-04-19T19:38:37;95671.16;;;4.25;100.00
43878;BME280;29815;48.184;11.268;2023-04-19T19:41:09;95660.06;;;4.28;100.00
43878;BME280;29815;48.184;11.268;2023-04-19T19:43:41;95658.78;;;4.30;100.00
43878;BME280;29815;48.184;11.268;2023-04-19T19:46:12;95658.78;;;4.30;100.00
43878;BME280;29815;48.184;11.268;2023-04-19T19:48:42;95664.72;;;4.32;100.00
43878;BME280;29815;48.184;11.268;2023-04-19T19:51:12;95662.03;;;4.32;100.00
43878;BME280;29815;48.184;11.268;2023-04-19T19:54:01;95666.34;;;4.33;100.00
43878;BME280;29815;48.184;11.268;2023-04-19T19:56:32;95654.88;;;4.33;100.00
43878;BME280;29815;48.184;11.268;2023-04-19T19:59:02;95662.03;;;4.32;100.00
43878;BME280;29815;48.184;11.268;2023-04-19T20:01:31;95661.47;;;4.30;100.00
43878;BME280;29815;48.184;11.268;2023-04-19T20:04:01;95656.34;;;4.29;100.00
43878;BME280;29815;48.184;11.268;2023-04-19T20:06:31;95656.34;;;4.29;100.00
43878;BME280;29815;48.184;11.268;2023-04-19T20:09:04;95667.69;;;4.24;100.00